sensor_id;sensor_type;location;lat;lon;timestamp;P1;durP1;ratioP1;P2;durP2;ratioP2
9489;SDS011;4783;42.734;23.288;2022-09-03T06:35:58;9.38;;;8.48;;
9489;SDS011;4783;42.734;23.288;2022-09-03T07:01:24;10.75;;;8.50;;
9489;SDS011;4783;42.734;23.288;2022-09-03T07:14:58;14.65;;;8.18;;
9489;SDS011;4783;42.734;23.288;2022-09-03T07:17:24;13.48;;;7.70;;
9489;SDS011;4783;42.734;23.288;2022-09-03T07:19:49;8.30;;;7.50;;
9489;SDS011;4783;42.734;23.288;2022-09-03T07:22:14;10.18;;;9.15;;
9489;SDS011;4783;42.734;23.288;2022-09-03T07:24:40;9.20;;;7.90;;
9489;SDS011;4783;42.734;23.288;2022-09-03T07:33:46;7.78;;;7.07;;
9489;SDS011;4783;42.734;23.288;2022-09-03T07:36:14;8.82;;;7.93;;
9489;SDS011;4783;42.734;23.288;2022-09-03T07:38:40;8.55;;;7.60;;
9489;SDS011;4783;42.734;23.288;2022-09-03T07:46:51;7.82;;;7.03;;
9489;SDS011;4783;42.734;23.288;2022-09-03T07:49:17;8.50;;;7.47;;
9489;SDS011;4783;42.734;23.288;2022-09-03T07:51:42;7.53;;;6.82;;
9489;SDS011;4783;42.734;23.288;2022-09-03T07:54:08;8.70;;;7.13;;
9489;SDS011;4783;42.734;23.288;2022-09-03T08:01:41;10.65;;;7.20;;
9489;SDS011;4783;42.734;23.288;2022-09-03T08:04:07;10.32;;;7.20;;
9489;SDS011;4783;42.734;23.288;2022-09-03T08:10:26;8.50;;;7.53;;
9489;SDS011;4783;42.734;23.288;2022-09-03T08:16:45;8.52;;;7.57;;
9489;SDS011;4783;42.734;23.288;2022-09-03T08:23:38;9.65;;;7.32;;
9489;SDS011;4783;42.734;23.288;2022-09-03T08:29:18;7.32;;;6.30;;
9489;SDS011;4783;42.734;23.288;2022-09-03T08:35:58;6.40;;;5.80;;
9489;SDS011;4783;42.734;23.288;2022-09-03T08:38:24;7.07;;;6.47;;
9489;SDS011;4783;42.734;23.288;2022-09-03T08:40:50;7.60;;;6.63;;
9489;SDS011;4783;42.734;23.288;2022-09-03T08:43:15;6.57;;;5.93;;
9489;SDS011;4783;42.734;23.288;2022-09-03T08:45:42;6.97;;;6.38;;
9489;SDS011;4783;42.734;23.288;2022-09-03T08:48:09;9.63;;;7.55;;
9489;SDS011;4783;42.734;23.288;2022-09-03T08:50:37;8.13;;;6.45;;
9489;SDS011;4783;42.734;23.288;2022-09-03T09:04:07;7.47;;;6.78;;
9489;SDS011;4783;42.734;23.288;2022-09-03T09:06:43;7.15;;;6.45;;
9489;SDS011;4783;42.734;23.288;2022-09-03T09:09:16;7.75;;;6.70;;
9489;SDS011;4783;42.734;23.288;2022-09-03T09:14:18;6.90;;;6.30;;
9489;SDS011;4783;42.734;23.288;2022-09-03T09:16:54;11.60;;;6.18;;
9489;SDS011;4783;42.734;23.288;2022-09-03T09:25:56;10.85;;;6.43;;
9489;SDS011;4783;42.734;23.288;2022-09-03T09:28:24;7.03;;;6.32;;
9489;SDS011;4783;42.734;23.288;2022-09-03T09:30:50;5.93;;;5.43;;
9489;SDS011;4783;42.734;23.288;2022-09-03T09:33:16;7.45;;;5.65;;
9489;SDS011;4783;42.734;23.288;2022-09-03T09:35:42;9.15;;;6.25;;
9489;SDS011;4783;42.734;23.288;2022-09-03T09:38:08;8.32;;;6.13;;
9489;SDS011;4783;42.734;23.288;2022-09-03T09:40:43;8.68;;;6.60;;
9489;SDS011;4783;42.734;23.288;2022-09-03T09:43:12;6.53;;;5.93;;
9489;SDS011;4783;42.734;23.288;2022-09-03T09:45:40;6.30;;;5.70;;
9489;SDS011;4783;42.734;23.288;2022-09-03T09:48:13;6.13;;;5.53;;
9489;SDS011;4783;42.734;23.288;2022-09-03T09:50:40;5.57;;;5.07;;
9489;SDS011;4783;42.734;23.288;2022-09-03T09:53:08;5.35;;;4.85;;
9489;SDS011;4783;42.734;23.288;2022-09-03T09:55:55;15.82;;;7.78;;
9489;SDS011;4783;42.734;23.288;2022-09-03T09:58:24;6.22;;;5.28;;
9489;SDS011;4783;42.734;23.288;2022-09-03T10:01:00;5.47;;;4.97;;
9489;SDS011;4783;42.734;23.288;2022-09-03T10:03:27;5.90;;;5.40;;
9489;SDS011;4783;42.734;23.288;2022-09-03T10:06:00;5.40;;;4.93;;
9489;SDS011;4783;42.734;23.288;2022-09-03T10:08:46;6.05;;;5.45;;
9489;SDS011;4783;42.734;23.288;2022-09-03T10:11:11;4.97;;;4.57;;
9489;SDS011;4783;42.734;23.288;2022-09-03T10:13:39;6.53;;;5.90;;
9489;SDS011;4783;42.734;23.288;2022-09-03T10:16:25;6.07;;;5.35;;
9489;SDS011;4783;42.734;23.288;2022-09-03T10:19:03;7.13;;;5.75;;
9489;SDS011;4783;42.734;23.288;2022-09-03T10:21:30;5.85;;;5.07;;
9489;SDS011;4783;42.734;23.288;2022-09-03T10:24:14;8.95;;;5.43;;
9489;SDS011;4783;42.734;23.288;2022-09-03T10:26:41;5.45;;;4.95;;
9489;SDS011;4783;42.734;23.288;2022-09-03T10:29:09;6.40;;;5.57;;
9489;SDS011;4783;42.734;23.288;2022-09-03T10:39:03;5.20;;;4.75;;
9489;SDS011;4783;42.734;23.288;2022-09-03T10:44:25;6.03;;;5.43;;
9489;SDS011;4783;42.734;23.288;2022-09-03T11:07:13;6.03;;;5.53;;
9489;SDS011;4783;42.734;23.288;2022-09-03T11:09:43;6.43;;;5.00;;
9489;SDS011;4783;42.734;23.288;2022-09-03T11:14:52;6.95;;;5.30;;
9489;SDS011;4783;42.734;23.288;2022-09-03T11:17:28;5.75;;;5.25;;
9489;SDS011;4783;42.734;23.288;2022-09-03T11:20:01;6.20;;;5.65;;
9489;SDS011;4783;42.734;23.288;2022-09-03T11:22:31;6.10;;;5.60;;
9489;SDS011;4783;42.734;23.288;2022-09-03T11:24:57;10.75;;;6.30;;
9489;SDS011;4783;42.734;23.288;2022-09-03T11:29:55;5.72;;;5.20;;
9489;SDS011;4783;42.734;23.288;2022-09-03T11:33:05;5.68;;;5.15;;
9489;SDS011;4783;42.734;23.288;2022-09-03T11:35:13;5.53;;;5.03;;
9489;SDS011;4783;42.734;23.288;2022-09-03T11:37:53;5.97;;;5.45;;
9489;SDS011;4783;42.734;23.288;2022-09-03T11:40:19;5.40;;;4.90;;
9489;SDS011;4783;42.734;23.288;2022-09-03T11:42:45;5.10;;;4.60;;
9489;SDS011;4783;42.734;23.288;2022-09-03T11:47:54;5.57;;;5.00;;
9489;SDS011;4783;42.734;23.288;2022-09-03T11:52:45;5.78;;;5.18;;
9489;SDS011;4783;42.734;23.288;2022-09-03T11:55:11;6.68;;;5.28;;
9489;SDS011;4783;42.734;23.288;2022-09-03T11:57:39;6.80;;;5.45;;
9489;SDS011;4783;42.734;23.288;2022-09-03T12:02:34;6.35;;;4.95;;
9489;SDS011;4783;42.734;23.288;2022-09-03T12:17:58;6.15;;;5.55;;
9489;SDS011;4783;42.734;23.288;2022-09-03T12:20:59;7.85;;;5.60;;
9489;SDS011;4783;42.734;23.288;2022-09-03T12:23:32;7.15;;;5.40;;
9489;SDS011;4783;42.734;23.288;2022-09-03T12:28:55;7.35;;;5.00;;
9489;SDS011;4783;42.734;23.288;2022-09-03T12:31:22;5.20;;;4.80;;
9489;SDS011;4783;42.734;23.288;2022-09-03T12:33:53;5.00;;;4.60;;
9489;SDS011;4783;42.734;23.288;2022-09-03T12:36:20;6.20;;;5.35;;
9489;SDS011;4783;42.734;23.288;2022-09-03T12:38:45;6.53;;;5.03;;
9489;SDS011;4783;42.734;23.288;2022-09-03T12:41:21;6.18;;;4.63;;
9489;SDS011;4783;42.734;23.288;2022-09-03T12:43:57;6.13;;;4.50;;
9489;SDS011;4783;42.734;23.288;2022-09-03T12:46:30;11.32;;;5.50;;
9489;SDS011;4783;42.734;23.288;2022-09-03T12:49:00;5.07;;;4.30;;
9489;SDS011;4783;42.734;23.288;2022-09-03T12:51:33;9.35;;;4.47;;
9489;SDS011;4783;42.734;23.288;2022-09-03T12:53:58;7.13;;;4.97;;
9489;SDS011;4783;42.734;23.288;2022-09-03T12:56:25;4.85;;;3.70;;
9489;SDS011;4783;42.734;23.288;2022-09-03T12:58:54;4.50;;;4.10;;
9489;SDS011;4783;42.734;23.288;2022-09-03T13:01:24;4.80;;;3.78;;
9489;SDS011;4783;42.734;23.288;2022-09-03T13:03:54;5.60;;;4.00;;
9489;SDS011;4783;42.734;23.288;2022-09-03T13:06:26;3.97;;;3.67;;
9489;SDS011;4783;42.734;23.288;2022-09-03T13:08:56;3.40;;;2.90;;
9489;SDS011;4783;42.734;23.288;2022-09-03T13:11:22;3.35;;;3.05;;
9489;SDS011;4783;42.734;23.288;2022-09-03T13:13:55;3.50;;;3.20;;
9489;SDS011;4783;42.734;23.288;2022-09-03T13:29:28;3.38;;;3.05;;
9489;SDS011;4783;42.734;23.288;2022-09-03T13:32:24;2.80;;;2.60;;
9489;SDS011;4783;42.734;23.288;2022-09-03T13:34:49;2.97;;;2.78;;
9489;SDS011;4783;42.734;23.288;2022-09-03T13:37:24;5.35;;;4.85;;
9489;SDS011;4783;42.734;23.288;2022-09-03T13:39:57;5.65;;;2.30;;
9489;SDS011;4783;42.734;23.288;2022-09-03T13:45:36;3.00;;;2.63;;
9489;SDS011;4783;42.734;23.288;2022-09-03T13:47:46;4.55;;;2.90;;
9489;SDS011;4783;42.734;23.288;2022-09-03T13:51:02;3.40;;;3.10;;
9489;SDS011;4783;42.734;23.288;2022-09-03T13:53:34;3.58;;;3.28;;
9489;SDS011;4783;42.734;23.288;2022-09-03T13:56:03;3.00;;;2.80;;
9489;SDS011;4783;42.734;23.288;2022-09-03T13:58:35;4.35;;;3.05;;
9489;SDS011;4783;42.734;23.288;2022-09-03T14:02:06;2.88;;;2.67;;
9489;SDS011;4783;42.734;23.288;2022-09-03T14:04:00;2.90;;;2.63;;
9489;SDS011;4783;42.734;23.288;2022-09-03T14:16:23;2.80;;;2.55;;
9489;SDS011;4783;42.734;23.288;2022-09-03T14:18:58;3.08;;;2.88;;
9489;SDS011;4783;42.734;23.288;2022-09-03T14:21:38;2.92;;;2.72;;
9489;SDS011;4783;42.734;23.288;2022-09-03T14:24:13;5.03;;;3.22;;
9489;SDS011;4783;42.734;23.288;2022-09-03T14:26:50;3.47;;;3.08;;
9489;SDS011;4783;42.734;23.288;2022-09-03T14:29:17;3.15;;;2.80;;
9489;SDS011;4783;42.734;23.288;2022-09-03T14:31:50;3.50;;;3.20;;
9489;SDS011;4783;42.734;23.288;2022-09-03T14:34:22;4.68;;;3.25;;
9489;SDS011;4783;42.734;23.288;2022-09-03T14:36:52;3.40;;;3.10;;
9489;SDS011;4783;42.734;23.288;2022-09-03T14:39:22;3.10;;;2.80;;
9489;SDS011;4783;42.734;23.288;2022-09-03T14:58:18;3.40;;;2.50;;
9489;SDS011;4783;42.734;23.288;2022-09-03T15:01:05;2.40;;;2.20;;
9489;SDS011;4783;42.734;23.288;2022-09-03T15:06:06;3.22;;;2.92;;
9489;SDS011;4783;42.734;23.288;2022-09-03T15:11:12;3.58;;;3.28;;
9489;SDS011;4783;42.734;23.288;2022-09-03T15:13:45;3.65;;;3.15;;
9489;SDS011;4783;42.734;23.288;2022-09-03T15:24:05;5.35;;;2.97;;
9489;SDS011;4783;42.734;23.288;2022-09-03T15:29:19;3.35;;;3.05;;
9489;SDS011;4783;42.734;23.288;2022-09-03T15:31:54;3.53;;;2.92;;
9489;SDS011;4783;42.734;23.288;2022-09-03T15:37:07;3.55;;;3.13;;
9489;SDS011;4783;42.734;23.288;2022-09-03T15:39:35;3.60;;;3.30;;
9489;SDS011;4783;42.734;23.288;2022-09-03T15:42:10;4.18;;;3.70;;
9489;SDS011;4783;42.734;23.288;2022-09-03T15:44:44;5.25;;;3.40;;
9489;SDS011;4783;42.734;23.288;2022-09-03T15:47:12;5.28;;;3.28;;
9489;SDS011;4783;42.734;23.288;2022-09-03T15:49:59;5.15;;;4.70;;
9489;SDS011;4783;42.734;23.288;2022-09-03T15:52:30;5.05;;;3.28;;
9489;SDS011;4783;42.734;23.288;2022-09-03T15:55:06;3.70;;;3.40;;
